sensor_id;sensor_type;location;lat;lon;timestamp;temperature;humidity
62573;DHT22;48626;51.678;5.806;2023-09-30T00:00:45;13.30;99.90
62573;DHT22;48626;51.678;5.806;2023-09-30T00:03:12;13.30;99.90
62573;DHT22;48626;51.678;5.806;2023-09-30T00:05:38;13.30;99.90
62573;DHT22;48626;51.678;5.806;2023-09-30T00:08:04;13.30;99.90
62573;DHT22;48626;51.678;5.806;2023-09-30T00:10:30;13.30;99.90
62573;DHT22;48626;51.678;5.806;2023-09-30T00:12:56;13.30;99.90
62573;DHT22;48626;51.678;5.806;2023-09-30T00:15:22;13.30;99.90
62573;DHT22;48626;51.678;5.806;2023-09-30T00:17:49;13.30;99.90
62573;DHT22;48626;51.678;5.806;2023-09-30T00:20:15;13.30;99.90
62573;DHT22;48626;51.678;5.806;2023-09-30T00:22:41;13.30;99.90
62573;DHT22;48626;51.678;5.806;2023-09-30T00:25:07;13.30;99.90
62573;DHT22;48626;51.678;5.806;2023-09-30T00:27:33;13.30;99.90
62573;DHT22;48626;51.678;5.806;2023-09-30T00:29:59;13.30;99.90
62573;DHT22;48626;51.678;5.806;2023-09-30T00:32:24;13.30;99.90
62573;DHT22;48626;51.678;5.806;2023-09-30T00:34:50;13.30;99.90
62573;DHT22;48626;51.678;5.806;2023-09-30T00:37:17;13.30;99.90
62573;DHT22;48626;51.678;5.806;2023-09-30T00:39:43;13.30;99.90
62573;DHT22;48626;51.678;5.806;2023-09-30T00:42:10;13.30;99.90
62573;DHT22;48626;51.678;5.806;2023-09-30T00:44:36;13.30;99.90
62573;DHT22;48626;51.678;5.806;2023-09-30T00:47:02;13.20;99.90
62573;DHT22;48626;51.678;5.806;2023-09-30T00:49:28;13.20;99.90
62573;DHT22;48626;51.678;5.806;2023-09-30T00:51:55;13.20;99.90
62573;DHT22;48626;51.678;5.806;2023-09-30T00:54:22;13.20;99.90
62573;DHT22;48626;51.678;5.806;2023-09-30T00:56:50;13.20;99.90
62573;DHT22;48626;51.678;5.806;2023-09-30T00:59:17;13.10;99.90
62573;DHT22;48626;51.678;5.806;2023-09-30T01:01:44;13.10;99.90
62573;DHT22;48626;51.678;5.806;2023-09-30T01:04:11;13.10;99.90
62573;DHT22;48626;51.678;5.806;2023-09-30T01:06:37;13.10;99.90
62573;DHT22;48626;51.678;5.806;2023-09-30T01:09:03;13.00;99.90
62573;DHT22;48626;51.678;5.806;2023-09-30T01:11:29;13.00;99.90
62573;DHT22;48626;51.678;5.806;2023-09-30T01:13:55;13.00;99.90
62573;DHT22;48626;51.678;5.806;2023-09-30T01:16:21;13.00;99.90
62573;DHT22;48626;51.678;5.806;2023-09-30T01:18:46;13.00;99.90
62573;DHT22;48626;51.678;5.806;2023-09-30T01:21:12;12.90;99.90
62573;DHT22;48626;51.678;5.806;2023-09-30T01:23:38;12.90;99.90
62573;DHT22;48626;51.678;5.806;2023-09-30T01:26:12;12.90;99.90
62573;DHT22;48626;51.678;5.806;2023-09-30T01:28:39;12.90;99.90
62573;DHT22;48626;51.678;5.806;2023-09-30T01:31:05;12.90;99.90
62573;DHT22;48626;51.678;5.806;2023-09-30T01:33:31;12.90;99.90
62573;DHT22;48626;51.678;5.806;2023-09-30T01:35:58;12.80;99.90
62573;DHT22;48626;51.678;5.806;2023-09-30T01:38:25;12.80;99.90
62573;DHT22;48626;51.678;5.806;2023-09-30T01:40:50;12.80;99.90
62573;DHT22;48626;51.678;5.806;2023-09-30T01:43:17;12.80;99.90
62573;DHT22;48626;51.678;5.806;2023-09-30T01:45:43;12.70;99.90
62573;DHT22;48626;51.678;5.806;2023-09-30T01:48:10;12.70;99.90
62573;DHT22;48626;51.678;5.806;2023-09-30T01:50:39;12.70;99.90
62573;DHT22;48626;51.678;5.806;2023-09-30T01:53:06;12.70;99.90
62573;DHT22;48626;51.678;5.806;2023-09-30T01:55:35;12.60;99.90
62573;DHT22;48626;51.678;5.806;2023-09-30T01:58:01;12.60;99.90
62573;DHT22;48626;51.678;5.806;2023-09-30T02:00:27;12.60;99.90
62573;DHT22;48626;51.678;5.806;2023-09-30T02:02:54;12.60;99.90
62573;DHT22;48626;51.678;5.806;2023-09-30T02:05:21;12.50;99.90
62573;DHT22;48626;51.678;5.806;2023-09-30T02:07:48;12.50;99.90
62573;DHT22;48626;51.678;5.806;2023-09-30T02:10:14;12.50;99.90
62573;DHT22;48626;51.678;5.806;2023-09-30T02:12:39;12.50;99.90
62573;DHT22;48626;51.678;5.806;2023-09-30T02:15:05;12.50;99.90
62573;DHT22;48626;51.678;5.806;2023-09-30T02:17:32;12.50;99.90
62573;DHT22;48626;51.678;5.806;2023-09-30T02:19:58;12.50;99.90
62573;DHT22;48626;51.678;5.806;2023-09-30T02:22:24;12.50;99.90
62573;DHT22;48626;51.678;5.806;2023-09-30T02:24:53;12.50;99.90
62573;DHT22;48626;51.678;5.806;2023-09-30T02:27:19;12.50;99.90
62573;DHT22;48626;51.678;5.806;2023-09-30T02:29:45;12.50;99.90
62573;DHT22;48626;51.678;5.806;2023-09-30T02:32:11;12.50;99.90
62573;DHT22;48626;51.678;5.806;2023-09-30T02:34:38;12.60;99.90
62573;DHT22;48626;51.678;5.806;2023-09-30T02:37:03;12.50;99.90
62573;DHT22;48626;51.678;5.806;2023-09-30T02:39:29;12.60;99.90
62573;DHT22;48626;51.678;5.806;2023-09-30T02:41:54;12.60;99.90
62573;DHT22;48626;51.678;5.806;2023-09-30T02:44:20;12.60;99.90
62573;DHT22;48626;51.678;5.806;2023-09-30T02:46:46;12.60;99.90
62573;DHT22;48626;51.678;5.806;2023-09-30T02:49:11;12.60;99.90
62573;DHT22;48626;51.678;5.806;2023-09-30T02:51:37;12.60;99.90
62573;DHT22;48626;51.678;5.806;2023-09-30T02:54:03;12.60;99.90
62573;DHT22;48626;51.678;5.806;2023-09-30T02:56:28;12.50;99.90
62573;DHT22;48626;51.678;5.806;2023-09-30T02:58:56;12.60;99.90
62573;DHT22;48626;51.678;5.806;2023-09-30T03:01:21;12.50;99.90
62573;DHT22;48626;51.678;5.806;2023-09-30T03:03:47;12.50;99.90
62573;DHT22;48626;51.678;5.806;2023-09-30T03:06:13;12.50;99.90
62573;DHT22;48626;51.678;5.806;2023-09-30T03:08:40;12.50;99.90
62573;DHT22;48626;51.678;5.806;2023-09-30T03:11:06;12.60;99.90
62573;DHT22;48626;51.678;5.806;2023-09-30T03:13:33;12.60;99.90
62573;DHT22;48626;51.678;5.806;2023-09-30T03:15:58;12.50;99.90
62573;DHT22;48626;51.678;5.806;2023-09-30T03:18:24;12.60;99.90
62573;DHT22;48626;51.678;5.806;2023-09-30T03:21:01;12.50;99.90
62573;DHT22;48626;51.678;5.806;2023-09-30T03:23:28;12.50;99.90
62573;DHT22;48626;51.678;5.806;2023-09-30T03:25:59;12.50;99.90
62573;DHT22;48626;51.678;5.806;2023-09-30T03:28:26;12.40;99.90
62573;DHT22;48626;51.678;5.806;2023-09-30T03:30:52;12.50;99.90
62573;DHT22;48626;51.678;5.806;2023-09-30T03:33:18;12.40;99.90
62573;DHT22;48626;51.678;5.806;2023-09-30T03:35:44;12.40;99.90
62573;DHT22;48626;51.678;5.806;2023-09-30T03:38:10;12.40;99.90
62573;DHT22;48626;51.678;5.806;2023-09-30T03:40:39;12.40;99.90
62573;DHT22;48626;51.678;5.806;2023-09-30T03:43:05;12.50;99.90
62573;DHT22;48626;51.678;5.806;2023-09-30T03:45:34;12.40;99.90
62573;DHT22;48626;51.678;5.806;2023-09-30T03:48:01;12.40;99.90
62573;DHT22;48626;51.678;5.806;2023-09-30T03:50:28;12.40;99.90
62573;DHT22;48626;51.678;5.806;2023-09-30T03:53:01;12.40;99.90
62573;DHT22;48626;51.678;5.806;2023-09-30T03:55:27;12.40;99.90
62573;DHT22;48626;51.678;5.806;2023-09-30T03:57:55;12.30;99.90
62573;DHT22;48626;51.678;5.806;2023-09-30T04:00:21;12.30;99.90
62573;DHT22;48626;51.678;5.806;2023-09-30T04:02:47;12.30;99.90
62573;DHT22;48626;51.678;5.806;2023-09-30T04:05:20;12.30;99.90
62573;DHT22;48626;51.678;5.806;2023-09-30T04:07:49;12.30;99.90
62573;DHT22;48626;51.678;5.806;2023-09-30T04:10:16;12.30;99.90
62573;DHT22;48626;51.678;5.806;2023-09-30T04:12:42;12.30;99.90
62573;DHT22;48626;51.678;5.806;2023-09-30T04:15:08;12.30;99.90
62573;DHT22;48626;51.678;5.806;2023-09-30T04:17:37;12.30;99.90
62573;DHT22;48626;51.678;5.806;2023-09-30T04:20:08;12.30;99.90
62573;DHT22;48626;51.678;5.806;2023-09-30T04:22:36;12.30;99.90
62573;DHT22;48626;51.678;5.806;2023-09-30T04:25:02;12.40;99.90
62573;DHT22;48626;51.678;5.806;2023-09-30T04:27:34;12.40;99.90
62573;DHT22;48626;51.678;5.806;2023-09-30T04:29:59;12.50;99.90
62573;DHT22;48626;51.678;5.806;2023-09-30T04:32:25;12.50;99.90
62573;DHT22;48626;51.678;5.806;2023-09-30T04:34:52;12.60;99.90
62573;DHT22;48626;51.678;5.806;2023-09-30T04:37:18;12.60;99.90
62573;DHT22;48626;51.678;5.806;2023-09-30T04:39:44;12.60;99.90
62573;DHT22;48626;51.678;5.806;2023-09-30T04:42:10;12.60;99.90
62573;DHT22;48626;51.678;5.806;2023-09-30T04:44:37;12.60;99.90
62573;DHT22;48626;51.678;5.806;2023-09-30T04:47:04;12.60;99.90
62573;DHT22;48626;51.678;5.806;2023-09-30T04:49:30;12.60;99.90
62573;DHT22;48626;51.678;5.806;2023-09-30T04:51:56;12.50;99.90
62573;DHT22;48626;51.678;5.806;2023-09-30T04:54:22;12.50;99.90
62573;DHT22;48626;51.678;5.806;2023-09-30T04:56:47;12.50;99.90
62573;DHT22;48626;51.678;5.806;2023-09-30T04:59:13;12.40;99.90
62573;DHT22;48626;51.678;5.806;2023-09-30T05:01:39;12.50;99.90
62573;DHT22;48626;51.678;5.806;2023-09-30T05:04:05;12.40;99.90
62573;DHT22;48626;51.678;5.806;2023-09-30T05:06:32;12.40;99.90
62573;DHT22;48626;51.678;5.806;2023-09-30T05:08:58;12.40;99.90
62573;DHT22;48626;51.678;5.806;2023-09-30T05:11:24;12.40;99.90
62573;DHT22;48626;51.678;5.806;2023-09-30T05:13:50;12.40;99.90
62573;DHT22;48626;51.678;5.806;2023-09-30T05:16:17;12.40;99.90
62573;DHT22;48626;51.678;5.806;2023-09-30T05:18:43;12.40;99.90
62573;DHT22;48626;51.678;5.806;2023-09-30T05:21:09;12.40;99.90
62573;DHT22;48626;51.678;5.806;2023-09-30T05:23:36;12.40;99.90
62573;DHT22;48626;51.678;5.806;2023-09-30T05:26:02;12.40;99.90
62573;DHT22;48626;51.678;5.806;2023-09-30T05:28:27;12.40;99.90
62573;DHT22;48626;51.678;5.806;2023-09-30T05:30:53;12.40;99.90
62573;DHT22;48626;51.678;5.806;2023-09-30T05:33:19;12.40;99.90
62573;DHT22;48626;51.678;5.806;2023-09-30T05:35:44;12.30;99.90
62573;DHT22;48626;51.678;5.806;2023-09-30T05:38:10;12.30;99.90
62573;DHT22;48626;51.678;5.806;2023-09-30T05:40:36;12.30;99.90
62573;DHT22;48626;51.678;5.806;2023-09-30T05:43:02;12.20;99.90
62573;DHT22;48626;51.678;5.806;2023-09-30T05:45:31;12.20;99.90
62573;DHT22;48626;51.678;5.806;2023-09-30T05:48:04;12.20;99.90
62573;DHT22;48626;51.678;5.806;2023-09-30T05:50:34;12.20;99.90
62573;DHT22;48626;51.678;5.806;2023-09-30T05:53:02;12.20;99.90
62573;DHT22;48626;51.678;5.806;2023-09-30T05:55:28;12.10;99.90
62573;DHT22;48626;51.678;5.806;2023-09-30T05:57:55;12.10;99.90
62573;DHT22;48626;51.678;5.806;2023-09-30T06:00:21;12.10;99.90
62573;DHT22;48626;51.678;5.806;2023-09-30T06:02:57;12.10;99.90
62573;DHT22;48626;51.678;5.806;2023-09-30T06:05:23;12.10;99.90
62573;DHT22;48626;51.678;5.806;2023-09-30T06:07:49;12.10;99.90
62573;DHT22;48626;51.678;5.806;2023-09-30T06:10:15;12.10;99.90
62573;DHT22;48626;51.678;5.806;2023-09-30T06:12:41;12.10;99.90
62573;DHT22;48626;51.678;5.806;2023-09-30T06:15:07;12.00;99.90
62573;DHT22;48626;51.678;5.806;2023-09-30T06:17:33;12.10;99.90
62573;DHT22;48626;51.678;5.806;2023-09-30T06:19:59;12.10;99.90
62573;DHT22;48626;51.678;5.806;2023-09-30T06:22:32;12.10;99.90
62573;DHT22;48626;51.678;5.806;2023-09-30T06:24:58;12.10;99.90
62573;DHT22;48626;51.678;5.806;2023-09-30T06:27:24;12.20;99.90
62573;DHT22;48626;51.678;5.806;2023-09-30T06:29:49;12.30;99.90
62573;DHT22;48626;51.678;5.806;2023-09-30T06:32:15;12.30;99.90
62573;DHT22;48626;51.678;5.806;2023-09-30T06:34:41;12.40;99.90
62573;DHT22;48626;51.678;5.806;2023-09-30T06:37:06;12.50;99.90
62573;DHT22;48626;51.678;5.806;2023-09-30T06:39:34;12.60;99.90
62573;DHT22;48626;51.678;5.806;2023-09-30T06:41:59;12.70;99.90
62573;DHT22;48626;51.678;5.806;2023-09-30T06:44:25;12.80;99.90
62573;DHT22;48626;51.678;5.806;2023-09-30T06:46:51;12.80;99.90
62573;DHT22;48626;51.678;5.806;2023-09-30T06:49:16;12.80;99.90
62573;DHT22;48626;51.678;5.806;2023-09-30T06:51:42;12.80;99.90
62573;DHT22;48626;51.678;5.806;2023-09-30T06:54:08;12.90;99.90
62573;DHT22;48626;51.678;5.806;2023-09-30T06:56:34;12.90;99.90
62573;DHT22;48626;51.678;5.806;2023-09-30T06:59:01;13.00;99.90
62573;DHT22;48626;51.678;5.806;2023-09-30T07:01:27;13.00;99.90
62573;DHT22;48626;51.678;5.806;2023-09-30T07:03:52;13.10;99.90
62573;DHT22;48626;51.678;5.806;2023-09-30T07:06:24;13.20;99.90
62573;DHT22;48626;51.678;5.806;2023-09-30T07:08:50;13.30;99.90
62573;DHT22;48626;51.678;5.806;2023-09-30T07:11:16;13.40;99.90
62573;DHT22;48626;51.678;5.806;2023-09-30T07:13:42;13.50;99.90
62573;DHT22;48626;51.678;5.806;2023-09-30T07:16:07;13.70;99.90
62573;DHT22;48626;51.678;5.806;2023-09-30T07:18:33;13.80;99.90
62573;DHT22;48626;51.678;5.806;2023-09-30T07:20:59;13.90;99.90
62573;DHT22;48626;51.678;5.806;2023-09-30T07:23:24;14.10;99.90
62573;DHT22;48626;51.678;5.806;2023-09-30T07:25:50;14.20;99.90
62573;DHT22;48626;51.678;5.806;2023-09-30T07:28:16;14.30;99.90
62573;DHT22;48626;51.678;5.806;2023-09-30T07:30:41;14.40;99.90
62573;DHT22;48626;51.678;5.806;2023-09-30T07:33:07;14.60;99.90
62573;DHT22;48626;51.678;5.806;2023-09-30T07:35:33;14.60;99.90
62573;DHT22;48626;51.678;5.806;2023-09-30T07:37:59;14.70;99.90
62573;DHT22;48626;51.678;5.806;2023-09-30T07:40:25;14.70;99.90
62573;DHT22;48626;51.678;5.806;2023-09-30T07:42:51;14.70;99.90
62573;DHT22;48626;51.678;5.806;2023-09-30T07:45:17;14.70;99.90
62573;DHT22;48626;51.678;5.806;2023-09-30T07:47:45;14.60;99.90
62573;DHT22;48626;51.678;5.806;2023-09-30T07:50:12;14.60;99.90
62573;DHT22;48626;51.678;5.806;2023-09-30T07:52:38;14.60;99.90
62573;DHT22;48626;51.678;5.806;2023-09-30T07:55:05;14.60;99.90
62573;DHT22;48626;51.678;5.806;2023-09-30T07:57:31;14.60;99.90
62573;DHT22;48626;51.678;5.806;2023-09-30T07:59:56;14.60;99.90
62573;DHT22;48626;51.678;5.806;2023-09-30T08:02:22;14.60;99.90
62573;DHT22;48626;51.678;5.806;2023-09-30T08:04:49;14.80;99.90
62573;DHT22;48626;51.678;5.806;2023-09-30T08:07:15;14.90;99.90
62573;DHT22;48626;51.678;5.806;2023-09-30T08:09:40;15.10;99.90
62573;DHT22;48626;51.678;5.806;2023-09-30T08:12:06;15.20;99.90
62573;DHT22;48626;51.678;5.806;2023-09-30T08:14:32;15.40;99.90
62573;DHT22;48626;51.678;5.806;2023-09-30T08:16:58;15.70;99.90
62573;DHT22;48626;51.678;5.806;2023-09-30T08:19:23;16.00;99.90
62573;DHT22;48626;51.678;5.806;2023-09-30T08:21:49;16.30;99.90
62573;DHT22;48626;51.678;5.806;2023-09-30T08:24:14;16.60;99.90
62573;DHT22;48626;51.678;5.806;2023-09-30T08:26:40;16.70;99.90
62573;DHT22;48626;51.678;5.806;2023-09-30T08:29:06;16.80;99.90
62573;DHT22;48626;51.678;5.806;2023-09-30T08:31:32;16.60;99.90
62573;DHT22;48626;51.678;5.806;2023-09-30T08:33:58;16.60;99.90
62573;DHT22;48626;51.678;5.806;2023-09-30T08:36:24;16.70;99.90
62573;DHT22;48626;51.678;5.806;2023-09-30T08:38:50;16.80;99.90
62573;DHT22;48626;51.678;5.806;2023-09-30T08:41:32;16.80;99.90
62573;DHT22;48626;51.678;5.806;2023-09-30T08:44:00;17.00;99.90
62573;DHT22;48626;51.678;5.806;2023-09-30T08:46:32;17.00;99.90
62573;DHT22;48626;51.678;5.806;2023-09-30T08:49:01;17.10;99.90
62573;DHT22;48626;51.678;5.806;2023-09-30T08:51:29;17.30;99.90
62573;DHT22;48626;51.678;5.806;2023-09-30T08:53:55;17.40;99.90
62573;DHT22;48626;51.678;5.806;2023-09-30T08:56:25;17.50;99.90
62573;DHT22;48626;51.678;5.806;2023-09-30T08:58:53;17.70;99.90
62573;DHT22;48626;51.678;5.806;2023-09-30T09:01:20;17.80;99.90
62573;DHT22;48626;51.678;5.806;2023-09-30T09:03:47;17.90;99.90
62573;DHT22;48626;51.678;5.806;2023-09-30T09:06:24;18.00;99.90
62573;DHT22;48626;51.678;5.806;2023-09-30T09:08:51;18.10;99.90
62573;DHT22;48626;51.678;5.806;2023-09-30T09:11:17;18.20;99.90
62573;DHT22;48626;51.678;5.806;2023-09-30T09:16:11;18.40;99.90
62573;DHT22;48626;51.678;5.806;2023-09-30T09:18:37;18.50;99.90
62573;DHT22;48626;51.678;5.806;2023-09-30T09:21:22;18.50;99.90
62573;DHT22;48626;51.678;5.806;2023-09-30T09:23:50;18.60;99.90
62573;DHT22;48626;51.678;5.806;2023-09-30T09:28:49;18.80;99.90
62573;DHT22;48626;51.678;5.806;2023-09-30T09:31:26;18.90;99.90
62573;DHT22;48626;51.678;5.806;2023-09-30T09:33:52;19.10;99.90
62573;DHT22;48626;51.678;5.806;2023-09-30T09:36:19;19.20;99.90
62573;DHT22;48626;51.678;5.806;2023-09-30T09:38:49;19.30;99.90
62573;DHT22;48626;51.678;5.806;2023-09-30T09:41:16;19.50;99.90
62573;DHT22;48626;51.678;5.806;2023-09-30T09:43:42;19.50;99.90
62573;DHT22;48626;51.678;5.806;2023-09-30T09:46:09;19.70;99.90
62573;DHT22;48626;51.678;5.806;2023-09-30T09:48:36;19.90;99.90
62573;DHT22;48626;51.678;5.806;2023-09-30T09:51:03;20.10;99.90
62573;DHT22;48626;51.678;5.806;2023-09-30T09:53:31;20.30;99.90
62573;DHT22;48626;51.678;5.806;2023-09-30T09:56:00;20.50;99.90
62573;DHT22;48626;51.678;5.806;2023-09-30T09:58:26;20.70;99.90
62573;DHT22;48626;51.678;5.806;2023-09-30T10:00:52;20.90;99.90
62573;DHT22;48626;51.678;5.806;2023-09-30T10:03:18;21.00;99.90
62573;DHT22;48626;51.678;5.806;2023-09-30T10:05:44;21.30;99.90
62573;DHT22;48626;51.678;5.806;2023-09-30T10:08:15;21.50;99.90
62573;DHT22;48626;51.678;5.806;2023-09-30T10:10:44;21.70;99.90
62573;DHT22;48626;51.678;5.806;2023-09-30T10:19:19;22.10;99.90
62573;DHT22;48626;51.678;5.806;2023-09-30T10:24:47;22.30;99.90
62573;DHT22;48626;51.678;5.806;2023-09-30T10:30:06;22.50;99.90
62573;DHT22;48626;51.678;5.806;2023-09-30T10:37:46;22.50;99.90
62573;DHT22;48626;51.678;5.806;2023-09-30T10:40:28;22.70;99.90
62573;DHT22;48626;51.678;5.806;2023-09-30T10:42:55;23.10;99.90
62573;DHT22;48626;51.678;5.806;2023-09-30T10:50:58;23.00;99.90
62573;DHT22;48626;51.678;5.806;2023-09-30T10:53:26;22.80;99.90
62573;DHT22;48626;51.678;5.806;2023-09-30T10:55:57;22.90;99.90
62573;DHT22;48626;51.678;5.806;2023-09-30T10:58:43;23.40;99.90
62573;DHT22;48626;51.678;5.806;2023-09-30T11:01:11;24.10;99.90
62573;DHT22;48626;51.678;5.806;2023-09-30T11:03:37;24.60;99.90
62573;DHT22;48626;51.678;5.806;2023-09-30T11:06:03;25.20;99.90
62573;DHT22;48626;51.678;5.806;2023-09-30T11:08:30;25.60;99.90
62573;DHT22;48626;51.678;5.806;2023-09-30T11:10:56;26.00;99.90
62573;DHT22;48626;51.678;5.806;2023-09-30T11:13:22;26.40;99.90
62573;DHT22;48626;51.678;5.806;2023-09-30T11:15:59;26.70;99.90
62573;DHT22;48626;51.678;5.806;2023-09-30T11:18:26;26.60;99.90
62573;DHT22;48626;51.678;5.806;2023-09-30T11:21:09;26.50;99.90
62573;DHT22;48626;51.678;5.806;2023-09-30T11:23:37;26.50;99.90
62573;DHT22;48626;51.678;5.806;2023-09-30T11:26:03;26.80;99.90
62573;DHT22;48626;51.678;5.806;2023-09-30T11:29:04;27.20;99.90
62573;DHT22;48626;51.678;5.806;2023-09-30T11:31:30;27.80;99.90
62573;DHT22;48626;51.678;5.806;2023-09-30T11:33:59;27.90;99.90
62573;DHT22;48626;51.678;5.806;2023-09-30T11:36:30;27.90;99.90
62573;DHT22;48626;51.678;5.806;2023-09-30T11:38:56;27.40;99.90
62573;DHT22;48626;51.678;5.806;2023-09-30T11:41:22;26.80;99.90
62573;DHT22;48626;51.678;5.806;2023-09-30T11:44:05;26.30;99.90
62573;DHT22;48626;51.678;5.806;2023-09-30T11:46:47;26.10;99.90
62573;DHT22;48626;51.678;5.806;2023-09-30T11:49:33;26.00;99.90
62573;DHT22;48626;51.678;5.806;2023-09-30T11:52:08;25.50;99.90
62573;DHT22;48626;51.678;5.806;2023-09-30T11:54:35;25.40;99.90
62573;DHT22;48626;51.678;5.806;2023-09-30T11:57:07;25.70;99.90
62573;DHT22;48626;51.678;5.806;2023-09-30T11:59:36;26.10;99.90
62573;DHT22;48626;51.678;5.806;2023-09-30T12:02:02;26.70;99.90
62573;DHT22;48626;51.678;5.806;2023-09-30T12:04:29;27.10;99.90
62573;DHT22;48626;51.678;5.806;2023-09-30T12:06:55;27.20;99.90
62573;DHT22;48626;51.678;5.806;2023-09-30T12:09:20;26.90;99.90
62573;DHT22;48626;51.678;5.806;2023-09-30T12:11:51;26.90;99.90
62573;DHT22;48626;51.678;5.806;2023-09-30T12:14:17;26.80;99.90
62573;DHT22;48626;51.678;5.806;2023-09-30T12:16:43;27.00;99.90
62573;DHT22;48626;51.678;5.806;2023-09-30T12:19:13;27.20;99.90
62573;DHT22;48626;51.678;5.806;2023-09-30T12:21:41;27.30;99.90
62573;DHT22;48626;51.678;5.806;2023-09-30T12:24:07;27.30;99.90
62573;DHT22;48626;51.678;5.806;2023-09-30T12:26:35;27.30;99.90
62573;DHT22;48626;51.678;5.806;2023-09-30T12:29:01;27.60;99.90
62573;DHT22;48626;51.678;5.806;2023-09-30T12:31:26;27.60;99.90
62573;DHT22;48626;51.678;5.806;2023-09-30T12:33:52;27.50;99.90
62573;DHT22;48626;51.678;5.806;2023-09-30T12:36:23;27.50;99.90
62573;DHT22;48626;51.678;5.806;2023-09-30T12:38:49;27.70;99.90
62573;DHT22;48626;51.678;5.806;2023-09-30T12:41:15;27.90;99.90
62573;DHT22;48626;51.678;5.806;2023-09-30T12:43:41;28.00;99.90
62573;DHT22;48626;51.678;5.806;2023-09-30T12:46:08;27.90;99.90
62573;DHT22;48626;51.678;5.806;2023-09-30T12:48:34;28.10;99.90
62573;DHT22;48626;51.678;5.806;2023-09-30T12:51:00;28.20;99.90
62573;DHT22;48626;51.678;5.806;2023-09-30T12:53:26;27.90;99.90
62573;DHT22;48626;51.678;5.806;2023-09-30T12:55:51;27.20;99.90
62573;DHT22;48626;51.678;5.806;2023-09-30T12:58:17;26.70;99.90
62573;DHT22;48626;51.678;5.806;2023-09-30T13:00:43;26.50;99.90
62573;DHT22;48626;51.678;5.806;2023-09-30T13:03:09;26.60;99.90
62573;DHT22;48626;51.678;5.806;2023-09-30T13:05:35;26.40;99.90
62573;DHT22;48626;51.678;5.806;2023-09-30T13:08:01;26.30;99.90
62573;DHT22;48626;51.678;5.806;2023-09-30T13:10:27;26.10;99.90
62573;DHT22;48626;51.678;5.806;2023-09-30T13:12:52;25.90;99.90
62573;DHT22;48626;51.678;5.806;2023-09-30T13:15:19;25.60;99.90
62573;DHT22;48626;51.678;5.806;2023-09-30T13:17:47;25.40;99.90
62573;DHT22;48626;51.678;5.806;2023-09-30T13:20:13;25.10;99.90
62573;DHT22;48626;51.678;5.806;2023-09-30T13:22:39;24.80;99.90
62573;DHT22;48626;51.678;5.806;2023-09-30T13:25:08;24.60;99.90
62573;DHT22;48626;51.678;5.806;2023-09-30T13:27:34;24.30;99.90
62573;DHT22;48626;51.678;5.806;2023-09-30T13:30:00;24.10;99.90
62573;DHT22;48626;51.678;5.806;2023-09-30T13:32:27;23.90;99.90
62573;DHT22;48626;51.678;5.806;2023-09-30T13:34:52;23.70;99.90
62573;DHT22;48626;51.678;5.806;2023-09-30T13:37:18;23.60;99.90
62573;DHT22;48626;51.678;5.806;2023-09-30T13:39:43;23.50;99.90
62573;DHT22;48626;51.678;5.806;2023-09-30T13:42:09;23.30;99.90
62573;DHT22;48626;51.678;5.806;2023-09-30T13:44:35;23.20;99.90
62573;DHT22;48626;51.678;5.806;2023-09-30T13:47:02;23.10;99.90
62573;DHT22;48626;51.678;5.806;2023-09-30T13:49:28;23.10;99.90
62573;DHT22;48626;51.678;5.806;2023-09-30T13:51:56;23.00;99.90
62573;DHT22;48626;51.678;5.806;2023-09-30T13:54:21;22.90;99.90
62573;DHT22;48626;51.678;5.806;2023-09-30T13:56:47;22.80;99.90
62573;DHT22;48626;51.678;5.806;2023-09-30T13:59:13;22.60;99.90
62573;DHT22;48626;51.678;5.806;2023-09-30T14:01:39;22.50;99.90
62573;DHT22;48626;51.678;5.806;2023-09-30T14:04:07;22.30;99.90
62573;DHT22;48626;51.678;5.806;2023-09-30T14:06:32;22.30;99.90
62573;DHT22;48626;51.678;5.806;2023-09-30T14:08:58;22.20;99.90
62573;DHT22;48626;51.678;5.806;2023-09-30T14:11:24;22.10;99.90
62573;DHT22;48626;51.678;5.806;2023-09-30T14:13:49;22.10;99.90
62573;DHT22;48626;51.678;5.806;2023-09-30T14:16:15;22.10;99.90
62573;DHT22;48626;51.678;5.806;2023-09-30T14:18:41;22.00;99.90
62573;DHT22;48626;51.678;5.806;2023-09-30T14:21:07;22.00;99.90
62573;DHT22;48626;51.678;5.806;2023-09-30T14:23:33;22.00;99.90
62573;DHT22;48626;51.678;5.806;2023-09-30T14:25:58;21.80;99.90
62573;DHT22;48626;51.678;5.806;2023-09-30T14:28:30;21.70;99.90
62573;DHT22;48626;51.678;5.806;2023-09-30T14:30:55;21.60;99.90
62573;DHT22;48626;51.678;5.806;2023-09-30T14:33:21;21.50;99.90
62573;DHT22;48626;51.678;5.806;2023-09-30T14:35:47;21.50;99.90
62573;DHT22;48626;51.678;5.806;2023-09-30T14:38:13;21.50;99.90
62573;DHT22;48626;51.678;5.806;2023-09-30T14:40:39;21.40;99.90
62573;DHT22;48626;51.678;5.806;2023-09-30T14:43:05;21.30;99.90
62573;DHT22;48626;51.678;5.806;2023-09-30T14:45:31;21.40;99.90
62573;DHT22;48626;51.678;5.806;2023-09-30T14:47:57;21.30;99.90
62573;DHT22;48626;51.678;5.806;2023-09-30T14:50:22;21.20;99.90
62573;DHT22;48626;51.678;5.806;2023-09-30T14:52:48;21.20;99.90
62573;DHT22;48626;51.678;5.806;2023-09-30T14:55:15;21.10;99.90
62573;DHT22;48626;51.678;5.806;2023-09-30T14:57:41;21.10;99.90
62573;DHT22;48626;51.678;5.806;2023-09-30T15:00:07;21.10;99.90
62573;DHT22;48626;51.678;5.806;2023-09-30T15:02:34;21.20;99.90
62573;DHT22;48626;51.678;5.806;2023-09-30T15:04:59;21.10;99.90
62573;DHT22;48626;51.678;5.806;2023-09-30T15:07:25;21.10;99.90
62573;DHT22;48626;51.678;5.806;2023-09-30T15:09:50;21.10;99.90
62573;DHT22;48626;51.678;5.806;2023-09-30T15:12:17;21.00;99.90
62573;DHT22;48626;51.678;5.806;2023-09-30T15:14:43;21.00;99.90
62573;DHT22;48626;51.678;5.806;2023-09-30T15:17:10;21.00;99.90
62573;DHT22;48626;51.678;5.806;2023-09-30T15:19:36;20.90;99.90
62573;DHT22;48626;51.678;5.806;2023-09-30T15:22:01;21.00;99.90
62573;DHT22;48626;51.678;5.806;2023-09-30T15:24:27;21.00;99.90
62573;DHT22;48626;51.678;5.806;2023-09-30T15:26:53;20.90;99.90
62573;DHT22;48626;51.678;5.806;2023-09-30T15:29:18;21.00;99.90
62573;DHT22;48626;51.678;5.806;2023-09-30T15:31:44;21.00;99.90
62573;DHT22;48626;51.678;5.806;2023-09-30T15:34:09;21.00;99.90
62573;DHT22;48626;51.678;5.806;2023-09-30T15:36:37;20.90;99.90
62573;DHT22;48626;51.678;5.806;2023-09-30T15:39:03;20.90;99.90
62573;DHT22;48626;51.678;5.806;2023-09-30T15:41:29;20.80;99.90
62573;DHT22;48626;51.678;5.806;2023-09-30T15:43:58;20.70;99.90
62573;DHT22;48626;51.678;5.806;2023-09-30T15:46:25;20.60;99.90
62573;DHT22;48626;51.678;5.806;2023-09-30T15:48:51;20.60;99.90
62573;DHT22;48626;51.678;5.806;2023-09-30T15:51:16;20.50;99.90
62573;DHT22;48626;51.678;5.806;2023-09-30T15:53:42;20.30;99.90
62573;DHT22;48626;51.678;5.806;2023-09-30T15:56:08;20.30;99.90